Time;durP1;ratioP1;P1;durP2;ratioP2;P2;SDS_P1;SDS_P2;PMS_P1;PMS_P2;Temp;Humidity;BMP_temperature;BMP_pressure;BME280_temperature;BME280_humidity;BME280_pressure;Samples;Min_cycle;Max_cycle;Signal;HPM_P1;HPM_P2
2023/07/27 00:00:40;;;;;;;3.38;2.20;;;;;;;;;;5073855;28;20040;-80
2023/07/27 00:03:06;;;;;;;2.40;1.70;;;;;;;;;;5073840;28;20112;-80
2023/07/27 00:05:32;;;;;;;2.60;1.85;;;;;;;;;;5075242;28;20131;-79
2023/07/27 00:07:57;;;;;;;3.15;2.05;;;;;;;;;;5074037;28;20028;-80
2023/07/27 00:10:24;;;;;;;2.90;2.00;;;;;;;;;;5073995;28;20028;-80
2023/07/27 00:12:50;;;;;;;3.10;2.17;;;;;;;;;;5074681;28;20119;-80
2023/07/27 00:15:15;;;;;;;3.45;1.98;;;;;;;;;;5075033;28;20115;-80
2023/07/27 00:17:40;;;;;;;2.80;2.20;;;;;;;;;;5056760;28;20460;-80
2023/07/27 00:20:06;;;;;;;2.13;1.92;;;;;;;;;;5074965;28;20036;-80
2023/07/27 00:22:31;;;;;;;2.63;1.85;;;;;;;;;;5074484;28;20541;-80
2023/07/27 00:24:57;;;;;;;2.17;1.88;;;;;;;;;;5073343;28;20029;-80
2023/07/27 00:27:22;;;;;;;4.05;2.10;;;;;;;;;;5073348;28;20035;-80
2023/07/27 00:29:47;;;;;;;2.63;1.98;;;;;;;;;;5074804;28;20040;-80
2023/07/27 00:32:13;;;;;;;4.72;2.10;;;;;;;;;;5074479;28;20214;-79
2023/07/27 00:34:38;;;;;;;6.05;2.10;;;;;;;;;;5073667;28;20033;-80
2023/07/27 00:37:04;;;;;;;2.50;2.13;;;;;;;;;;5074628;28;20020;-80
2023/07/27 00:39:29;;;;;;;2.08;1.88;;;;;;;;;;5073415;28;20052;-80
2023/07/27 00:41:54;;;;;;;2.15;1.80;;;;;;;;;;5072978;28;20028;-80
2023/07/27 00:44:20;;;;;;;4.47;1.90;;;;;;;;;;5073304;28;20103;-80
2023/07/27 00:46:45;;;;;;;2.30;1.85;;;;;;;;;;5074471;28;20071;-80
2023/07/27 00:49:11;;;;;;;2.92;1.80;;;;;;;;;;5072696;28;20039;-81
2023/07/27 00:51:39;;;;;;;1.70;1.60;;;;;;;;;;5074054;28;20025;-81
2023/07/27 00:54:06;;;;;;;2.75;1.70;;;;;;;;;;5072882;28;20028;-81
2023/07/27 00:56:32;;;;;;;2.13;1.60;;;;;;;;;;5074560;28;20029;-81
2023/07/27 00:58:59;;;;;;;1.63;1.50;;;;;;;;;;5074262;28;20035;-80
2023/07/27 01:01:25;;;;;;;2.00;1.80;;;;;;;;;;5055859;28;20380;-80
2023/07/27 01:03:51;;;;;;;3.42;1.95;;;;;;;;;;5074005;28;20078;-80
2023/07/27 01:06:17;;;;;;;3.95;1.77;;;;;;;;;;5055870;28;20467;-80
2023/07/27 01:08:43;;;;;;;2.80;1.67;;;;;;;;;;5073804;28;20027;-80
2023/07/27 01:11:20;;;;;;;4.68;1.83;;;;;;;;;;5073817;28;20049;-80
2023/07/27 01:13:55;;;;;;;2.03;1.85;;;;;;;;;;5074006;28;20383;-81
2023/07/27 01:16:33;;;;;;;2.10;1.80;;;;;;;;;;5072661;28;20052;-80
2023/07/27 01:19:14;;;;;;;2.70;1.90;;;;;;;;;;5055648;28;20062;-81
2023/07/27 01:21:43;;;;;;;2.25;1.80;;;;;;;;;;5073653;28;20040;-80
2023/07/27 01:24:11;;;;;;;1.85;1.60;;;;;;;;;;5072330;28;20027;-81
2023/07/27 01:26:57;;;;;;;2.30;2.10;;;;;;;;;;5073774;28;20029;-80
2023/07/27 01:29:41;;;;;;;1.67;1.58;;;;;;;;;;5073761;28;20036;-80
2023/07/27 01:32:09;;;;;;;1.88;1.60;;;;;;;;;;5072208;28;20475;-80
2023/07/27 01:34:35;;;;;;;2.72;1.80;;;;;;;;;;5055427;28;20411;-80
2023/07/27 01:37:03;;;;;;;1.80;1.60;;;;;;;;;;5072235;28;20119;-80
2023/07/27 01:39:31;;;;;;;2.30;1.52;;;;;;;;;;5055383;28;20063;-80
2023/07/27 01:41:57;;;;;;;2.03;1.65;;;;;;;;;;5072365;28;20031;-80
2023/07/27 01:44:24;;;;;;;1.70;1.50;;;;;;;;;;5055010;28;20462;-80
2023/07/27 01:46:51;;;;;;;3.53;1.73;;;;;;;;;;5072105;28;20116;-79
2023/07/27 01:49:17;;;;;;;2.40;1.70;;;;;;;;;;5055208;28;20017;-79
2023/07/27 01:51:43;;;;;;;2.45;1.70;;;;;;;;;;5073358;28;20028;-80
2023/07/27 01:54:09;;;;;;;1.80;1.60;;;;;;;;;;5071995;28;20055;-80
2023/07/27 01:56:36;;;;;;;3.22;1.90;;;;;;;;;;5072270;28;20035;-80
2023/07/27 01:59:02;;;;;;;3.67;1.60;;;;;;;;;;5071967;28;20111;-80
2023/07/27 02:01:27;;;;;;;1.77;1.40;;;;;;;;;;5071851;28;20025;-79
2023/07/27 02:03:53;;;;;;;1.70;1.60;;;;;;;;;;5055143;28;20051;-79
2023/07/27 02:06:18;;;;;;;1.90;1.60;;;;;;;;;;5071901;28;20052;-79
2023/07/27 02:08:44;;;;;;;2.15;1.80;;;;;;;;;;5071961;28;20107;-79
2023/07/27 02:11:10;;;;;;;1.67;1.58;;;;;;;;;;5072891;28;20048;-79
2023/07/27 02:13:45;;;;;;;1.75;1.52;;;;;;;;;;5072031;28;20111;-79
2023/07/27 02:16:18;;;;;;;2.03;1.65;;;;;;;;;;5071934;28;20024;-79
2023/07/27 02:18:45;;;;;;;2.58;1.63;;;;;;;;;;5054973;28;20480;-79
2023/07/27 02:21:11;;;;;;;1.67;1.58;;;;;;;;;;5071812;28;20044;-79
2023/07/27 02:23:37;;;;;;;2.90;1.70;;;;;;;;;;5072041;28;20089;-79
2023/07/27 02:26:03;;;;;;;2.40;1.70;;;;;;;;;;5054934;28;20025;-79
2023/07/27 02:28:28;;;;;;;1.90;1.73;;;;;;;;;;5054930;28;20437;-79
2023/07/27 02:30:54;;;;;;;1.90;1.50;;;;;;;;;;5071926;28;20024;-79
2023/07/27 02:33:19;;;;;;;2.00;1.60;;;;;;;;;;5071907;28;20463;-79
2023/07/27 02:35:45;;;;;;;1.92;1.70;;;;;;;;;;5071816;28;20032;-79
2023/07/27 02:38:10;;;;;;;1.98;1.38;;;;;;;;;;5071771;28;20466;-79
2023/07/27 02:40:35;;;;;;;2.38;2.05;;;;;;;;;;5054601;28;20386;-79
2023/07/27 02:43:02;;;;;;;2.42;1.92;;;;;;;;;;5072051;28;20085;-78
2023/07/27 02:45:27;;;;;;;1.70;1.60;;;;;;;;;;5072875;28;20052;-79
2023/07/27 02:47:52;;;;;;;3.38;1.90;;;;;;;;;;5071382;28;20058;-79
2023/07/27 02:50:18;;;;;;;2.85;1.73;;;;;;;;;;5054588;28;20386;-79
2023/07/27 02:52:44;;;;;;;2.63;1.60;;;;;;;;;;5072595;28;20071;-79
2023/07/27 02:55:10;;;;;;;1.63;1.50;;;;;;;;;;5071367;28;20042;-80
2023/07/27 02:57:36;;;;;;;1.70;1.60;;;;;;;;;;5073445;28;20127;-80
2023/07/27 03:00:02;;;;;;;1.80;1.63;;;;;;;;;;5076208;28;20040;-80
2023/07/27 03:02:27;;;;;;;2.90;1.50;;;;;;;;;;5076070;28;20536;-79
2023/07/27 03:04:53;;;;;;;2.67;2.00;;;;;;;;;;5076134;28;20033;-79
2023/07/27 03:07:19;;;;;;;3.13;1.58;;;;;;;;;;5075183;28;20025;-79
2023/07/27 03:09:49;;;;;;;1.50;1.40;;;;;;;;;;5074935;28;20405;-79
2023/07/27 03:12:14;;;;;;;1.63;1.52;;;;;;;;;;5074776;28;20049;-80
2023/07/27 03:14:40;;;;;;;2.22;1.50;;;;;;;;;;5075088;28;20035;-79
2023/07/27 03:17:05;;;;;;;1.92;1.65;;;;;;;;;;5075887;28;20032;-80
2023/07/27 03:19:31;;;;;;;2.38;1.65;;;;;;;;;;5075850;28;20036;-80
2023/07/27 03:21:56;;;;;;;2.95;1.92;;;;;;;;;;5074559;28;20028;-80
2023/07/27 03:24:21;;;;;;;1.85;1.40;;;;;;;;;;5074600;28;20398;-80
2023/07/27 03:26:47;;;;;;;3.67;1.55;;;;;;;;;;5074555;28;20017;-80
2023/07/27 03:29:12;;;;;;;2.50;1.67;;;;;;;;;;5076032;28;20357;-79
2023/07/27 03:31:38;;;;;;;3.40;1.52;;;;;;;;;;5075951;28;20021;-79
2023/07/27 03:34:03;;;;;;;2.30;1.50;;;;;;;;;;5075982;28;20020;-79
2023/07/27 03:36:29;;;;;;;1.70;1.60;;;;;;;;;;5074392;28;20115;-79
2023/07/27 03:38:54;;;;;;;1.60;1.50;;;;;;;;;;5074324;28;20486;-79
2023/07/27 03:41:19;;;;;;;2.42;1.50;;;;;;;;;;5075721;28;20435;-79
2023/07/27 03:43:45;;;;;;;1.67;1.50;;;;;;;;;;5075748;28;20032;-80
2023/07/27 03:46:10;;;;;;;2.15;1.50;;;;;;;;;;5075909;28;20066;-79
2023/07/27 03:48:36;;;;;;;2.45;1.45;;;;;;;;;;5075347;28;20500;-79
2023/07/27 03:51:02;;;;;;;1.13;1.02;;;;;;;;;;5057634;28;20075;-80
2023/07/27 03:53:28;;;;;;;1.85;1.45;;;;;;;;;;5057268;28;20025;-80
2023/07/27 03:55:53;;;;;;;1.63;1.40;;;;;;;;;;5074321;28;20024;-80
2023/07/27 03:58:19;;;;;;;1.35;1.10;;;;;;;;;;5075434;28;20425;-80
2023/07/27 04:00:44;;;;;;;3.22;1.38;;;;;;;;;;5074918;28;20070;-80
2023/07/27 04:03:09;;;;;;;1.70;1.60;;;;;;;;;;5074180;28;20037;-80
2023/07/27 04:05:35;;;;;;;2.70;1.33;;;;;;;;;;5075412;28;20471;-80
2023/07/27 04:08:00;;;;;;;1.40;1.30;;;;;;;;;;5075410;28;20033;-80
2023/07/27 04:10:26;;;;;;;1.45;1.30;;;;;;;;;;5090643;28;20029;-80
2023/07/27 04:12:52;;;;;;;1.70;1.50;;;;;;;;;;5056899;28;20516;-81
2023/07/27 04:15:17;;;;;;;2.13;1.67;;;;;;;;;;5073952;28;20028;-79
2023/07/27 04:17:43;;;;;;;3.65;1.83;;;;;;;;;;5073583;28;20033;-79
2023/07/27 04:20:09;;;;;;;1.70;1.55;;;;;;;;;;5056796;28;20037;-81
2023/07/27 04:22:34;;;;;;;2.40;2.20;;;;;;;;;;5056823;28;20039;-80
2023/07/27 04:25:00;;;;;;;3.15;2.05;;;;;;;;;;5056676;28;20399;-79
2023/07/27 04:27:25;;;;;;;2.53;1.65;;;;;;;;;;5074780;28;20073;-79
2023/07/27 04:29:50;;;;;;;3.78;2.20;;;;;;;;;;5073686;28;20029;-81
2023/07/27 04:32:16;;;;;;;1.60;1.40;;;;;;;;;;5073425;28;20488;-82
2023/07/27 04:34:41;;;;;;;3.65;2.67;;;;;;;;;;5073508;28;20044;-81
2023/07/27 04:37:06;;;;;;;4.68;3.22;;;;;;;;;;5074432;28;20029;-82
2023/07/27 04:39:32;;;;;;;2.53;1.90;;;;;;;;;;5073021;28;20041;-82
2023/07/27 04:41:57;;;;;;;2.83;1.88;;;;;;;;;;5073054;28;20078;-82
2023/07/27 04:44:22;;;;;;;3.97;1.80;;;;;;;;;;5074609;28;20391;-81
2023/07/27 04:46:48;;;;;;;3.58;2.00;;;;;;;;;;5073040;28;20471;-81
2023/07/27 04:49:13;;;;;;;3.05;1.75;;;;;;;;;;5056063;28;20547;-80
2023/07/27 04:51:39;;;;;;;2.28;1.70;;;;;;;;;;5074448;28;20074;-80
2023/07/27 04:54:04;;;;;;;2.20;1.73;;;;;;;;;;5074352;28;20128;-80
2023/07/27 04:56:30;;;;;;;3.40;2.10;;;;;;;;;;5073102;28;20434;-80
2023/07/27 04:58:55;;;;;;;3.08;2.00;;;;;;;;;;5072790;28;20039;-79
2023/07/27 05:01:21;;;;;;;2.35;2.10;;;;;;;;;;5073806;28;20027;-79
2023/07/27 05:03:46;;;;;;;2.63;1.77;;;;;;;;;;5074154;28;20039;-80
2023/07/27 05:06:11;;;;;;;3.03;1.77;;;;;;;;;;5074405;28;20047;-79
2023/07/27 05:08:37;;;;;;;2.53;1.90;;;;;;;;;;5072808;28;20036;-79
2023/07/27 05:11:03;;;;;;;4.07;2.20;;;;;;;;;;5072674;28;20049;-79
2023/07/27 05:13:28;;;;;;;2.70;1.88;;;;;;;;;;5072501;28;20478;-79
2023/07/27 05:15:54;;;;;;;3.55;1.90;;;;;;;;;;5073595;28;20039;-79
2023/07/27 05:18:19;;;;;;;5.05;1.80;;;;;;;;;;5055712;28;20025;-79
2023/07/27 05:20:45;;;;;;;1.98;1.75;;;;;;;;;;5055150;28;20042;-80
2023/07/27 05:23:10;;;;;;;3.15;1.98;;;;;;;;;;5072336;28;20032;-80
2023/07/27 05:25:35;;;;;;;2.33;1.80;;;;;;;;;;5073661;28;20028;-80
2023/07/27 05:28:02;;;;;;;3.05;1.83;;;;;;;;;;5073814;28;20052;-80
2023/07/27 05:30:27;;;;;;;2.15;1.77;;;;;;;;;;5073896;28;20028;-80
2023/07/27 05:32:53;;;;;;;2.22;1.70;;;;;;;;;;5074188;28;20356;-80
2023/07/27 05:35:18;;;;;;;2.40;1.85;;;;;;;;;;5072659;28;20038;-80
2023/07/27 05:37:46;;;;;;;2.17;1.75;;;;;;;;;;5073795;28;20039;-80
2023/07/27 05:40:14;;;;;;;2.80;1.95;;;;;;;;;;5073511;28;20028;-79
2023/07/27 05:42:39;;;;;;;1.80;1.50;;;;;;;;;;5073411;28;20032;-79
2023/07/27 05:45:05;;;;;;;2.08;1.88;;;;;;;;;;5073451;28;20506;-79
2023/07/27 05:47:31;;;;;;;2.03;1.60;;;;;;;;;;5055402;28;20051;-81
2023/07/27 05:49:58;;;;;;;2.67;1.67;;;;;;;;;;5073445;28;20039;-80
2023/07/27 05:52:23;;;;;;;3.60;2.13;;;;;;;;;;5073434;28;20043;-78
2023/07/27 05:54:49;;;;;;;1.92;1.45;;;;;;;;;;5071988;28;20468;-79
2023/07/27 05:57:14;;;;;;;3.15;2.00;;;;;;;;;;5055390;28;20043;-79
2023/07/27 05:59:39;;;;;;;3.63;1.83;;;;;;;;;;5072078;28;20482;-79
2023/07/27 06:02:05;;;;;;;1.92;1.35;;;;;;;;;;5072147;28;20037;-79
2023/07/27 06:04:31;;;;;;;1.67;1.48;;;;;;;;;;5071827;28;20027;-80
2023/07/27 06:06:57;;;;;;;1.60;1.45;;;;;;;;;;5072141;28;20025;-79
2023/07/27 06:09:23;;;;;;;2.35;1.70;;;;;;;;;;5073330;28;20056;-79
2023/07/27 06:11:48;;;;;;;1.80;1.42;;;;;;;;;;5071818;28;20459;-79
2023/07/27 06:14:14;;;;;;;3.50;1.88;;;;;;;;;;5071779;28;20028;-79
2023/07/27 06:16:39;;;;;;;1.63;1.30;;;;;;;;;;5071862;28;20035;-79
2023/07/27 06:19:04;;;;;;;3.33;1.40;;;;;;;;;;5072189;28;20044;-79
2023/07/27 06:21:30;;;;;;;1.73;1.30;;;;;;;;;;5073432;28;20032;-79
2023/07/27 06:23:55;;;;;;;1.33;1.23;;;;;;;;;;5073046;28;20040;-78
2023/07/27 06:26:21;;;;;;;1.80;1.27;;;;;;;;;;5072222;28;20035;-78
2023/07/27 06:28:46;;;;;;;1.42;1.33;;;;;;;;;;5071842;28;20575;-79
2023/07/27 06:31:11;;;;;;;1.75;1.52;;;;;;;;;;5073508;28;20036;-78
2023/07/27 06:33:37;;;;;;;1.52;1.42;;;;;;;;;;5077278;28;20056;-78
2023/07/27 06:36:02;;;;;;;1.50;1.40;;;;;;;;;;5075600;28;20032;-78
2023/07/27 06:38:28;;;;;;;1.50;1.40;;;;;;;;;;5077106;28;20082;-79
2023/07/27 06:40:53;;;;;;;1.52;1.40;;;;;;;;;;5076715;28;20024;-80
2023/07/27 06:43:18;;;;;;;1.70;1.33;;;;;;;;;;5075567;28;20424;-85
2023/07/27 06:45:44;;;;;;;1.83;1.30;;;;;;;;;;5076688;28;20395;-78
2023/07/27 06:48:09;;;;;;;4.78;1.55;;;;;;;;;;5075339;28;20031;-78
2023/07/27 06:50:35;;;;;;;1.40;1.30;;;;;;;;;;5076917;28;20429;-78
2023/07/27 06:53:00;;;;;;;2.00;1.55;;;;;;;;;;5058450;28;20031;-82
2023/07/27 06:55:26;;;;;;;3.58;1.42;;;;;;;;;;5075212;28;20036;-79
2023/07/27 06:57:54;;;;;;;2.58;1.50;;;;;;;;;;5076571;28;20028;-79
2023/07/27 07:00:19;;;;;;;12.93;1.60;;;;;;;;;;5076140;28;20111;-79
2023/07/27 07:02:45;;;;;;;6.18;1.73;;;;;;;;;;5076394;28;20452;-77
2023/07/27 07:05:11;;;;;;;4.97;1.50;;;;;;;;;;5075205;28;20033;-79
2023/07/27 07:07:38;;;;;;;4.43;1.20;;;;;;;;;;5076417;28;20086;-80
2023/07/27 07:10:04;;;;;;;3.53;1.45;;;;;;;;;;5076139;28;20032;-81
2023/07/27 07:12:29;;;;;;;3.17;1.25;;;;;;;;;;5075960;28;20045;-78
2023/07/27 07:14:55;;;;;;;3.63;1.20;;;;;;;;;;5076569;28;20032;-79
2023/07/27 07:17:20;;;;;;;5.85;1.67;;;;;;;;;;5075182;28;20498;-78
2023/07/27 07:19:45;;;;;;;2.65;1.25;;;;;;;;;;5074810;28;20041;-78
2023/07/27 07:22:11;;;;;;;5.13;1.70;;;;;;;;;;5074968;28;20082;-78
2023/07/27 07:24:36;;;;;;;4.10;2.10;;;;;;;;;;5075056;28;20420;-78
2023/07/27 07:27:02;;;;;;;6.90;2.00;;;;;;;;;;5075251;28;20103;-77
2023/07/27 07:29:27;;;;;;;5.22;1.50;;;;;;;;;;5075915;28;20028;-78
2023/07/27 07:31:52;;;;;;;5.40;1.55;;;;;;;;;;5075821;28;20107;-78
2023/07/27 07:34:18;;;;;;;1.13;1.00;;;;;;;;;;5075714;28;20032;-78
2023/07/27 07:36:43;;;;;;;2.55;1.05;;;;;;;;;;5076248;28;20473;-78
2023/07/27 07:39:09;;;;;;;2.35;1.20;;;;;;;;;;5074866;28;20036;-79
2023/07/27 07:41:34;;;;;;;3.08;1.33;;;;;;;;;;5057521;28;20075;-83
2023/07/27 07:44:00;;;;;;;4.80;1.40;;;;;;;;;;5075280;28;20523;-80
2023/07/27 07:46:25;;;;;;;4.32;1.48;;;;;;;;;;5074346;28;20027;-80
2023/07/27 07:48:51;;;;;;;2.10;1.20;;;;;;;;;;5075508;28;20108;-81
2023/07/27 07:51:16;;;;;;;2.53;1.30;;;;;;;;;;5074541;28;20024;-86
2023/07/27 07:53:41;;;;;;;4.18;1.20;;;;;;;;;;5074260;28;20108;-83
2023/07/27 07:56:15;;;;;;;3.78;1.33;;;;;;;;;;5075467;28;20448;-82
2023/07/27 07:58:41;;;;;;;1.95;1.00;;;;;;;;;;5074719;28;20103;-81
2023/07/27 08:01:06;;;;;;;2.38;1.17;;;;;;;;;;5057231;28;20453;-79
2023/07/27 08:03:32;;;;;;;2.05;1.20;;;;;;;;;;5075454;28;20107;-81
2023/07/27 08:05:57;;;;;;;4.03;1.30;;;;;;;;;;5073911;28;20032;-78
2023/07/27 08:08:23;;;;;;;9.13;2.28;;;;;;;;;;5075487;28;20491;-85
2023/07/27 08:10:48;;;;;;;16.45;3.30;;;;;;;;;;5073691;28;20028;-83
2023/07/27 08:13:13;;;;;;;10.13;2.55;;;;;;;;;;5073756;28;20413;-83
2023/07/27 08:15:39;;;;;;;6.78;2.10;;;;;;;;;;5073827;28;20542;-84
2023/07/27 08:18:04;;;;;;;6.00;2.30;;;;;;;;;;5075162;28;20421;-86
2023/07/27 08:20:30;;;;;;;6.30;2.40;;;;;;;;;;5075561;28;20082;-84
2023/07/27 08:22:55;;;;;;;5.53;2.28;;;;;;;;;;5075234;28;20123;-84
2023/07/27 08:25:21;;;;;;;7.68;2.70;;;;;;;;;;5075123;28;20033;-86
2023/07/27 08:27:47;;;;;;;5.53;1.75;;;;;;;;;;5074907;28;20032;-85
2023/07/27 08:30:13;;;;;;;6.18;2.20;;;;;;;;;;5056821;28;20029;-86
2023/07/27 08:32:40;;;;;;;8.80;2.30;;;;;;;;;;5073694;28;20035;-85
2023/07/27 08:35:06;;;;;;;4.95;2.10;;;;;;;;;;5074840;28;20039;-89
2023/07/27 08:37:31;;;;;;;5.00;1.95;;;;;;;;;;5073451;28;20032;-78
2023/07/27 08:39:58;;;;;;;2.72;1.45;;;;;;;;;;5073253;28;20025;-79
2023/07/27 08:42:23;;;;;;;6.20;2.13;;;;;;;;;;5073077;28;20025;-77
2023/07/27 08:44:49;;;;;;;4.10;1.63;;;;;;;;;;5073060;28;20036;-81
2023/07/27 08:47:15;;;;;;;6.20;1.40;;;;;;;;;;5073184;28;20074;-80
2023/07/27 08:49:40;;;;;;;5.90;2.22;;;;;;;;;;5056225;28;20077;-79
2023/07/27 08:52:06;;;;;;;4.88;1.45;;;;;;;;;;5073228;28;20024;-80
2023/07/27 08:54:31;;;;;;;3.88;1.20;;;;;;;;;;5073337;28;20513;-80
2023/07/27 08:56:57;;;;;;;5.20;1.35;;;;;;;;;;5074421;28;20030;-78
2023/07/27 08:59:24;;;;;;;1.33;1.10;;;;;;;;;;5056212;28;20479;-78
2023/07/27 09:01:52;;;;;;;2.05;1.20;;;;;;;;;;5073946;28;20103;-78
2023/07/27 09:04:18;;;;;;;2.95;1.40;;;;;;;;;;5072886;28;20021;-78
2023/07/27 09:06:44;;;;;;;2.80;1.52;;;;;;;;;;5074263;28;20124;-78
2023/07/27 09:09:25;;;;;;;3.35;1.00;;;;;;;;;;5073880;28;20025;-78
2023/07/27 09:11:51;;;;;;;1.60;0.90;;;;;;;;;;5072738;28;20131;-78
2023/07/27 09:14:19;;;;;;;0.68;0.68;;;;;;;;;;5072943;28;20032;-78
2023/07/27 09:16:49;;;;;;;2.05;0.95;;;;;;;;;;5055921;28;20024;-78
2023/07/27 09:19:16;;;;;;;1.75;0.70;;;;;;;;;;5055825;28;20048;-78
2023/07/27 09:21:44;;;;;;;0.70;0.70;;;;;;;;;;5072572;28;20052;-78
2023/07/27 09:24:14;;;;;;;1.08;0.70;;;;;;;;;;5072899;28;20100;-78
2023/07/27 09:26:48;;;;;;;0.75;0.73;;;;;;;;;;5072800;28;20429;-81
2023/07/27 09:29:19;;;;;;;1.25;0.80;;;;;;;;;;5070046;28;20039;-79
2023/07/27 09:31:49;;;;;;;2.13;1.10;;;;;;;;;;5078465;28;20075;-79
2023/07/27 09:34:16;;;;;;;2.15;1.00;;;;;;;;;;5092371;28;20089;-80
2023/07/27 09:36:42;;;;;;;1.42;1.33;;;;;;;;;;5075286;28;20478;-78
2023/07/27 09:39:09;;;;;;;2.50;0.90;;;;;;;;;;5092280;28;20024;-77
2023/07/27 09:41:34;;;;;;;6.68;1.10;;;;;;;;;;5075414;28;20115;-82
2023/07/27 09:44:01;;;;;;;5.65;1.10;;;;;;;;;;5092068;28;20103;-81
2023/07/27 09:46:27;;;;;;;1.25;1.05;;;;;;;;;;5093668;28;20032;-80
2023/07/27 09:48:53;;;;;;;1.00;0.90;;;;;;;;;;5093422;28;20386;-81
2023/07/27 09:51:18;;;;;;;2.45;1.00;;;;;;;;;;5092294;28;20032;-82
2023/07/27 09:53:45;;;;;;;1.77;0.90;;;;;;;;;;5091885;28;20039;-81
2023/07/27 09:56:15;;;;;;;1.95;1.08;;;;;;;;;;5092308;28;20046;-79
2023/07/27 09:58:41;;;;;;;0.75;0.70;;;;;;;;;;5077997;28;20016;-80
2023/07/27 10:01:07;;;;;;;1.20;0.80;;;;;;;;;;5073343;28;20024;-80
2023/07/27 10:03:33;;;;;;;1.67;1.10;;;;;;;;;;5073734;28;20543;-81
2023/07/27 10:05:59;;;;;;;2.03;0.70;;;;;;;;;;5077665;28;20181;-82
2023/07/27 10:08:25;;;;;;;0.95;0.77;;;;;;;;;;5098076;28;20031;-82
2023/07/27 10:10:54;;;;;;;1.45;0.73;;;;;;;;;;5095040;28;20036;-82
2023/07/27 10:13:22;;;;;;;0.68;0.68;;;;;;;;;;5079043;28;20067;-82
2023/07/27 10:15:50;;;;;;;0.85;0.70;;;;;;;;;;5079108;28;20032;-83
2023/07/27 10:18:15;;;;;;;0.50;0.50;;;;;;;;;;5077754;28;20037;-83
2023/07/27 10:20:41;;;;;;;1.42;0.70;;;;;;;;;;5077855;28;20040;-82
2023/07/27 10:23:28;;;;;;;0.60;0.60;;;;;;;;;;5077650;28;20122;-82
2023/07/27 10:25:56;;;;;;;0.65;0.63;;;;;;;;;;5098859;28;20046;-81
2023/07/27 10:28:38;;;;;;;2.80;0.70;;;;;;;;;;5097731;28;20024;-80
2023/07/27 10:31:23;;;;;;;0.73;0.70;;;;;;;;;;5084241;28;20027;-81
2023/07/27 10:34:07;;;;;;;0.65;0.55;;;;;;;;;;5077012;28;20166;-82
2023/07/27 10:36:57;;;;;;;0.77;0.50;;;;;;;;;;5078430;28;20435;-82
2023/07/27 10:39:41;;;;;;;0.50;0.50;;;;;;;;;;5077241;28;20021;-81
2023/07/27 10:42:12;;;;;;;0.60;0.60;;;;;;;;;;5058805;28;20469;-79
2023/07/27 10:44:45;;;;;;;0.70;0.70;;;;;;;;;;5077907;28;20020;-81
2023/07/27 10:47:33;;;;;;;1.77;0.60;;;;;;;;;;5078423;28;20082;-81
2023/07/27 10:49:59;;;;;;;2.67;0.50;;;;;;;;;;5077136;28;20078;-79
2023/07/27 10:52:29;;;;;;;0.52;0.50;;;;;;;;;;5074831;28;20033;-81
2023/07/27 10:54:59;;;;;;;1.23;0.75;;;;;;;;;;5078559;28;20399;-81
2023/07/27 10:57:29;;;;;;;1.45;0.70;;;;;;;;;;5077693;28;20034;-78
2023/07/27 10:59:54;;;;;;;1.10;0.60;;;;;;;;;;5060655;28;20064;-79
2023/07/27 11:02:34;;;;;;;1.27;0.70;;;;;;;;;;5077214;28;20060;-78
2023/07/27 11:05:02;;;;;;;1.75;0.77;;;;;;;;;;5077384;28;20024;-79
2023/07/27 11:07:35;;;;;;;1.15;0.47;;;;;;;;;;5077266;28;20391;-77
2023/07/27 11:10:10;;;;;;;2.22;0.65;;;;;;;;;;5077399;28;20028;-79
2023/07/27 11:12:52;;;;;;;0.60;0.60;;;;;;;;;;5076925;28;20048;-81
2023/07/27 11:15:29;;;;;;;0.60;0.50;;;;;;;;;;5077193;28;20059;-80
2023/07/27 11:17:56;;;;;;;1.42;0.50;;;;;;;;;;5074370;28;20048;-80
2023/07/27 11:20:23;;;;;;;0.50;0.40;;;;;;;;;;5074217;28;20040;-79
2023/07/27 11:22:50;;;;;;;0.55;0.55;;;;;;;;;;5073275;28;20028;-79
2023/07/27 11:25:16;;;;;;;0.50;0.50;;;;;;;;;;5074001;28;20115;-80
2023/07/27 11:27:41;;;;;;;1.08;0.57;;;;;;;;;;5074020;28;20112;-80
2023/07/27 11:30:11;;;;;;;0.50;0.50;;;;;;;;;;5074072;28;20040;-79
2023/07/27 11:32:36;;;;;;;0.82;0.52;;;;;;;;;;5073582;28;20475;-81
2023/07/27 11:35:02;;;;;;;0.30;0.30;;;;;;;;;;5065988;28;20096;-81
2023/07/27 11:37:30;;;;;;;0.40;0.40;;;;;;;;;;5094183;28;20039;-81
2023/07/27 11:39:56;;;;;;;1.95;0.70;;;;;;;;;;5077422;28;20028;-82
2023/07/27 11:42:29;;;;;;;2.95;0.60;;;;;;;;;;5094225;28;20038;-82
2023/07/27 11:44:57;;;;;;;0.88;0.55;;;;;;;;;;5095357;28;20391;-81
2023/07/27 11:47:23;;;;;;;5.22;1.10;;;;;;;;;;5077072;28;20036;-79
2023/07/27 11:49:53;;;;;;;0.57;0.50;;;;;;;;;;5095328;28;20042;-77
2023/07/27 11:52:20;;;;;;;3.38;0.82;;;;;;;;;;5077402;28;20081;-80
2023/07/27 11:54:50;;;;;;;2.40;0.70;;;;;;;;;;5095659;28;20028;-80
2023/07/27 11:57:16;;;;;;;1.17;0.80;;;;;;;;;;5111398;28;20058;-80
2023/07/27 11:59:41;;;;;;;0.70;0.70;;;;;;;;;;5095537;28;20043;-78
2023/07/27 12:02:07;;;;;;;0.50;0.50;;;;;;;;;;5095164;28;20035;-78
2023/07/27 12:04:32;;;;;;;1.13;0.50;;;;;;;;;;5095395;28;20458;-81
2023/07/27 12:06:58;;;;;;;0.43;0.43;;;;;;;;;;5094154;28;20032;-78
2023/07/27 12:09:23;;;;;;;0.43;0.43;;;;;;;;;;5095231;28;20036;-78
2023/07/27 12:11:48;;;;;;;0.85;0.60;;;;;;;;;;5094199;28;20086;-79
2023/07/27 12:14:19;;;;;;;0.30;0.30;;;;;;;;;;5093796;28;20032;-79
2023/07/27 12:16:45;;;;;;;0.52;0.52;;;;;;;;;;5094037;28;20425;-79
2023/07/27 12:19:11;;;;;;;0.45;0.45;;;;;;;;;;5093755;28;20123;-79
2023/07/27 12:21:39;;;;;;;1.25;0.47;;;;;;;;;;5094668;28;20070;-79
2023/07/27 12:24:09;;;;;;;0.50;0.50;;;;;;;;;;5094140;28;20047;-81
2023/07/27 12:26:35;;;;;;;0.43;0.43;;;;;;;;;;5110632;28;20033;-80
2023/07/27 12:29:00;;;;;;;0.50;0.50;;;;;;;;;;5093700;28;20028;-79
2023/07/27 12:31:26;;;;;;;0.70;0.40;;;;;;;;;;5095027;28;20017;-79
2023/07/27 12:33:51;;;;;;;0.85;0.57;;;;;;;;;;5093786;28;20479;-78
2023/07/27 12:36:17;;;;;;;0.60;0.30;;;;;;;;;;5094802;28;20118;-79
2023/07/27 12:38:42;;;;;;;0.50;0.50;;;;;;;;;;5093554;28;20097;-78
2023/07/27 12:41:08;;;;;;;0.38;0.38;;;;;;;;;;5093538;28;20035;-79
2023/07/27 12:43:33;;;;;;;0.38;0.30;;;;;;;;;;5094771;28;20028;-81
2023/07/27 12:45:58;;;;;;;0.47;0.47;;;;;;;;;;5076482;28;20055;-80
2023/07/27 12:48:24;;;;;;;0.60;0.60;;;;;;;;;;5094724;28;20028;-78
2023/07/27 12:50:49;;;;;;;0.40;0.40;;;;;;;;;;5095432;28;20115;-80
2023/07/27 12:53:14;;;;;;;0.50;0.50;;;;;;;;;;5094873;28;20383;-78
2023/07/27 12:55:40;;;;;;;0.43;0.43;;;;;;;;;;5095091;28;20023;-79
2023/07/27 12:58:05;;;;;;;0.40;0.32;;;;;;;;;;5094462;28;20035;-79
2023/07/27 13:00:31;;;;;;;1.00;0.30;;;;;;;;;;5093150;28;20079;-81
2023/07/27 13:02:56;;;;;;;0.50;0.50;;;;;;;;;;5093014;28;20035;-81
2023/07/27 13:05:21;;;;;;;0.30;0.30;;;;;;;;;;5093430;28;20029;-80
2023/07/27 13:07:47;;;;;;;0.52;0.40;;;;;;;;;;5093092;28;20032;-80
2023/07/27 13:10:14;;;;;;;0.40;0.40;;;;;;;;;;5093116;28;20043;-80
2023/07/27 13:12:39;;;;;;;0.35;0.35;;;;;;;;;;5093997;28;20044;-78
2023/07/27 13:15:05;;;;;;;0.52;0.40;;;;;;;;;;5092830;28;20028;-79
2023/07/27 13:17:31;;;;;;;0.60;0.57;;;;;;;;;;5093573;28;20467;-79
2023/07/27 13:19:56;;;;;;;0.30;0.30;;;;;;;;;;5092665;28;20032;-79
2023/07/27 13:22:25;;;;;;;0.30;0.30;;;;;;;;;;5092836;28;20073;-79
2023/07/27 13:24:50;;;;;;;0.43;0.30;;;;;;;;;;5075753;28;20536;-79
2023/07/27 13:27:16;;;;;;;0.40;0.40;;;;;;;;;;5092543;28;20036;-79
2023/07/27 13:29:41;;;;;;;0.22;0.22;;;;;;;;;;5092523;28;20036;-79
2023/07/27 13:32:07;;;;;;;1.67;0.38;;;;;;;;;;5093758;28;20019;-79
2023/07/27 13:34:32;;;;;;;0.30;0.30;;;;;;;;;;5092818;28;20039;-81
2023/07/27 13:37:01;;;;;;;0.35;0.35;;;;;;;;;;5093895;28;20031;-79
2023/07/27 13:39:26;;;;;;;0.43;0.43;;;;;;;;;;5093689;28;20471;-79
2023/07/27 13:41:52;;;;;;;1.55;0.35;;;;;;;;;;5093112;28;20039;-79
2023/07/27 13:44:17;;;;;;;0.17;0.17;;;;;;;;;;5092502;28;20036;-79
2023/07/27 13:46:42;;;;;;;0.30;0.30;;;;;;;;;;5093684;28;20024;-79
2023/07/27 13:49:08;;;;;;;0.30;0.30;;;;;;;;;;5093726;28;20090;-79
2023/07/27 13:51:33;;;;;;;0.20;0.20;;;;;;;;;;5092415;28;20390;-79
2023/07/27 13:53:58;;;;;;;0.52;0.40;;;;;;;;;;5093552;28;20028;-79
2023/07/27 13:56:24;;;;;;;1.58;0.40;;;;;;;;;;5094075;28;20032;-79
2023/07/27 13:58:49;;;;;;;0.40;0.40;;;;;;;;;;5092300;28;20059;-79
2023/07/27 14:01:15;;;;;;;0.40;0.40;;;;;;;;;;5075327;28;20035;-79
2023/07/27 14:03:40;;;;;;;0.28;0.28;;;;;;;;;;5093473;28;20031;-79
2023/07/27 14:06:05;;;;;;;0.40;0.40;;;;;;;;;;5092226;28;20032;-78
2023/07/27 14:08:31;;;;;;;0.73;0.50;;;;;;;;;;5092096;28;20475;-79
2023/07/27 14:10:56;;;;;;;0.55;0.55;;;;;;;;;;5092591;28;20035;-79
2023/07/27 14:13:22;;;;;;;0.50;0.50;;;;;;;;;;5093243;28;20047;-79
2023/07/27 14:15:47;;;;;;;0.57;0.57;;;;;;;;;;5092147;28;20047;-82
2023/07/27 14:18:12;;;;;;;0.90;0.70;;;;;;;;;;5092219;28;20035;-81
2023/07/27 14:20:38;;;;;;;0.65;0.60;;;;;;;;;;5075330;28;20026;-81
2023/07/27 14:23:03;;;;;;;0.85;0.65;;;;;;;;;;5073727;28;20051;-81
2023/07/27 14:25:28;;;;;;;1.90;0.90;;;;;;;;;;5090988;28;20039;-81
2023/07/27 14:27:54;;;;;;;1.85;1.00;;;;;;;;;;5092182;28;20032;-82
2023/07/27 14:30:19;;;;;;;4.95;1.17;;;;;;;;;;5090967;28;20113;-82
2023/07/27 14:32:45;;;;;;;3.47;1.08;;;;;;;;;;5074322;28;20455;-82
2023/07/27 14:35:10;;;;;;;1.95;1.05;;;;;;;;;;5092070;28;20026;-84
2023/07/27 14:37:36;;;;;;;0.93;0.82;;;;;;;;;;5091909;28;20364;-83
2023/07/27 14:40:01;;;;;;;0.98;0.90;;;;;;;;;;5073634;28;20043;-82